createdAt,value
2023-03-12T00:02:04.263Z,15.50
2023-03-12T00:04:34.501Z,16.50
2023-03-12T00:07:01.790Z,17.10
2023-03-12T00:09:28.999Z,16.33
2023-03-12T00:11:57.377Z,17.70
2023-03-12T00:14:24.631Z,16.10
2023-03-12T00:16:51.844Z,16.23
2023-03-12T00:19:21.147Z,17.03
2023-03-12T00:21:48.601Z,18.13
2023-03-12T00:24:16.714Z,18.23
2023-03-12T00:26:44.208Z,16.63
2023-03-12T00:29:11.587Z,17.30
2023-03-12T00:31:38.973Z,16.87
2023-03-12T00:34:07.173Z,17.90
2023-03-12T00:36:34.504Z,16.17
2023-03-12T00:39:02.339Z,16.30
2023-03-12T00:41:30.469Z,16.30
2023-03-12T00:43:58.526Z,16.97
2023-03-12T00:46:26.772Z,15.10
2023-03-12T00:48:54.020Z,16.00
2023-03-12T00:51:21.403Z,14.47
2023-03-12T00:53:48.669Z,14.80
2023-03-12T00:56:16.678Z,15.83
2023-03-12T00:58:44.078Z,14.67
2023-03-12T01:01:11.982Z,14.07
2023-03-12T01:03:39.444Z,16.23
2023-03-12T01:06:07.003Z,12.70
2023-03-12T01:08:35.461Z,15.70
2023-03-12T01:11:02.741Z,14.77
2023-03-12T01:13:29.966Z,14.87
2023-03-12T01:15:57.431Z,14.90
2023-03-12T01:18:24.659Z,13.90
2023-03-12T01:20:51.845Z,14.67
2023-03-12T01:23:19.170Z,13.80
2023-03-12T01:25:47.504Z,14.40
2023-03-12T01:28:14.708Z,14.83
2023-03-12T01:30:42.658Z,16.40
2023-03-12T01:33:10.013Z,15.90
2023-03-12T01:35:39.256Z,14.63
2023-03-12T01:38:07.208Z,16.20
2023-03-12T01:40:35.912Z,13.67
2023-03-12T01:43:22.614Z,14.60
2023-03-12T01:46:03.023Z,12.87
2023-03-12T01:48:39.056Z,14.10
2023-03-12T01:51:06.980Z,13.10
2023-03-12T01:53:34.552Z,15.50
2023-03-12T01:56:02.457Z,13.97
2023-03-12T01:58:31.519Z,13.40
2023-03-12T02:01:00.077Z,15.17
2023-03-12T02:03:28.655Z,13.30
2023-03-12T02:05:58.729Z,13.90
2023-03-12T02:08:26.036Z,13.53
2023-03-12T02:10:53.400Z,11.70
2023-03-12T02:13:21.010Z,14.13
2023-03-12T02:15:48.604Z,12.37
2023-03-12T02:18:17.400Z,11.63
2023-03-12T02:20:50.973Z,11.83
2023-03-12T02:23:21.354Z,11.13
2023-03-12T02:25:52.758Z,10.83
2023-03-12T02:28:23.805Z,9.53
2023-03-12T02:30:52.356Z,8.93
2023-03-12T02:33:19.649Z,9.47
2023-03-12T02:35:47.922Z,8.60
2023-03-12T02:38:45.706Z,9.50
2023-03-12T02:41:19.770Z,9.17
2023-03-12T02:43:50.021Z,9.40
2023-03-12T02:46:17.467Z,9.20
2023-03-12T02:48:44.672Z,9.33
2023-03-12T02:51:12.994Z,9.30
2023-03-12T02:53:40.479Z,8.93
2023-03-12T02:56:08.237Z,8.87
2023-03-12T02:58:37.560Z,8.07
2023-03-12T03:01:05.040Z,11.60
2023-03-12T03:03:32.418Z,8.60
2023-03-12T03:05:59.620Z,9.20
2023-03-12T03:08:26.895Z,8.47
2023-03-12T03:10:55.137Z,10.20
2023-03-12T03:13:23.510Z,9.97
2023-03-12T03:15:50.792Z,11.50
2023-03-12T03:18:18.201Z,11.60
2023-03-12T03:20:45.486Z,12.23
2023-03-12T03:23:12.626Z,11.40
2023-03-12T03:25:40.619Z,9.67
2023-03-12T03:28:08.057Z,8.63
2023-03-12T03:30:35.729Z,10.47
2023-03-12T03:33:04.964Z,10.10
2023-03-12T03:35:32.503Z,10.23
2023-03-12T03:37:59.773Z,9.93
2023-03-12T03:40:27.109Z,9.40
2023-03-12T03:42:55.355Z,9.33
2023-03-12T03:45:22.689Z,11.50
2023-03-12T03:47:50.113Z,11.20
2023-03-12T03:50:17.953Z,10.43
2023-03-12T03:52:45.124Z,9.73
2023-03-12T03:55:12.337Z,11.00
2023-03-12T03:57:40.410Z,9.90
2023-03-12T04:00:09.613Z,9.80
2023-03-12T04:02:41.043Z,9.83
2023-03-12T04:05:12.009Z,10.30
2023-03-12T04:07:39.802Z,10.47
2023-03-12T04:10:07.707Z,10.13
2023-03-12T04:12:35.843Z,8.63
2023-03-12T04:15:03.250Z,8.63
2023-03-12T04:17:30.611Z,9.10
2023-03-12T04:19:58.020Z,9.70
2023-03-12T04:22:25.477Z,10.27
2023-03-12T04:24:52.705Z,9.20
2023-03-12T04:27:20.269Z,8.83
2023-03-12T04:29:47.660Z,9.20
2023-03-12T04:32:15.452Z,9.80
2023-03-12T04:34:43.155Z,9.97
2023-03-12T04:37:13.940Z,8.93
2023-03-12T04:39:41.799Z,8.50
2023-03-12T04:42:09.447Z,9.53
2023-03-12T04:44:37.533Z,9.67
2023-03-12T04:47:05.369Z,8.80
2023-03-12T04:49:34.646Z,8.90
2023-03-12T04:52:02.192Z,8.57
2023-03-12T04:54:31.854Z,8.07
2023-03-12T04:56:59.327Z,9.60
2023-03-12T04:59:27.215Z,8.40
2023-03-12T05:01:54.746Z,8.20
2023-03-12T05:04:26.617Z,8.43
2023-03-12T05:06:54.868Z,9.00
2023-03-12T05:09:22.248Z,8.50
2023-03-12T05:11:49.730Z,9.63
2023-03-12T05:14:19.969Z,8.53
2023-03-12T05:16:48.437Z,7.80
2023-03-12T05:19:15.946Z,8.10
2023-03-12T05:21:43.562Z,9.57
2023-03-12T05:24:11.554Z,9.30
2023-03-12T05:26:39.054Z,8.57
2023-03-12T05:29:11.038Z,9.13
2023-03-12T05:31:38.648Z,10.17
2023-03-12T05:34:06.991Z,9.97
2023-03-12T05:36:38.819Z,9.30
2023-03-12T05:39:06.207Z,8.90
2023-03-12T05:41:35.208Z,8.67
2023-03-12T05:44:12.354Z,8.80
2023-03-12T05:46:39.695Z,8.80
2023-03-12T05:49:07.032Z,7.97
2023-03-12T05:51:35.588Z,8.70
2023-03-12T05:54:03.337Z,9.13
2023-03-12T05:56:30.636Z,9.17
2023-03-12T05:58:58.028Z,7.93
2023-03-12T06:01:27.441Z,7.93
2023-03-12T06:03:57.225Z,8.67
2023-03-12T06:06:26.147Z,8.63
2023-03-12T06:08:54.421Z,8.70
2023-03-12T06:11:21.675Z,8.37
2023-03-12T06:13:49.165Z,8.90
2023-03-12T06:16:18.344Z,8.33
2023-03-12T06:18:45.674Z,8.27
2023-03-12T06:21:18.853Z,9.50
2023-03-12T06:23:46.776Z,8.03
2023-03-12T06:26:20.082Z,8.77
2023-03-12T06:28:48.279Z,8.63
2023-03-12T06:31:15.860Z,9.20
2023-03-12T06:33:43.572Z,7.70
2023-03-12T06:36:11.421Z,8.80
2023-03-12T06:38:39.093Z,8.63
2023-03-12T06:41:09.294Z,8.30
2023-03-12T06:43:37.399Z,8.30
2023-03-12T06:46:05.525Z,8.73
2023-03-12T06:48:33.906Z,7.90
2023-03-12T06:51:01.037Z,8.20
2023-03-12T06:53:28.173Z,7.43
2023-03-12T06:55:55.282Z,8.10
2023-03-12T06:58:22.446Z,6.60
2023-03-12T07:00:49.596Z,7.57
2023-03-12T07:03:16.943Z,7.50
2023-03-12T07:05:45.370Z,6.20
2023-03-12T07:08:15.373Z,10.87
2023-03-12T07:10:42.904Z,7.43
2023-03-12T07:13:10.103Z,6.90
2023-03-12T07:15:37.380Z,8.47
2023-03-12T07:18:05.416Z,7.90
2023-03-12T07:20:32.812Z,7.27
2023-03-12T07:23:00.504Z,8.50
2023-03-12T07:25:27.670Z,7.03
2023-03-12T07:27:54.807Z,7.70
2023-03-12T07:30:22.096Z,7.80
2023-03-12T07:32:49.293Z,7.30
2023-03-12T07:35:16.486Z,7.37
2023-03-12T07:37:43.619Z,7.40
2023-03-12T07:40:11.116Z,6.70
2023-03-12T07:42:38.269Z,6.03
2023-03-12T07:45:08.027Z,6.27
2023-03-12T07:47:35.491Z,6.27
2023-03-12T07:50:03.030Z,6.07
2023-03-12T07:52:31.201Z,7.60
2023-03-12T07:54:58.848Z,6.00
2023-03-12T07:57:26.119Z,6.20
2023-03-12T07:59:53.411Z,7.23
2023-03-12T08:02:20.780Z,6.60
2023-03-12T08:04:48.176Z,6.60
2023-03-12T08:07:15.607Z,7.57
2023-03-12T08:09:43.238Z,6.90
2023-03-12T08:12:10.592Z,6.50
2023-03-12T08:14:37.901Z,7.67
2023-03-12T08:17:05.917Z,6.73
2023-03-12T08:19:33.054Z,7.07
2023-03-12T08:22:00.213Z,6.53
2023-03-12T08:24:28.384Z,6.83
2023-03-12T08:26:56.049Z,7.63
2023-03-12T08:29:23.297Z,8.73
2023-03-12T08:32:03.766Z,7.23
2023-03-12T08:34:32.108Z,7.70
2023-03-12T08:36:59.491Z,8.37
2023-03-12T08:39:26.846Z,7.33
2023-03-12T08:41:55.317Z,7.60
2023-03-12T08:44:23.717Z,8.50
2023-03-12T08:46:51.673Z,8.03
2023-03-12T08:49:19.063Z,8.17
2023-03-12T08:51:46.320Z,8.73
2023-03-12T08:54:16.932Z,8.40
2023-03-12T08:56:44.373Z,7.97
2023-03-12T08:59:12.393Z,7.90
2023-03-12T09:01:43.009Z,8.57
2023-03-12T09:04:11.208Z,9.67
2023-03-12T09:06:38.598Z,9.10
2023-03-12T09:09:09.130Z,8.80
2023-03-12T09:11:39.629Z,9.50
2023-03-12T09:16:54.383Z,9.40
2023-03-12T09:19:21.605Z,8.60
2023-03-12T09:21:48.783Z,9.97
2023-03-12T09:24:16.360Z,11.30
2023-03-12T09:26:43.592Z,10.63
2023-03-12T09:29:10.770Z,11.90
2023-03-12T09:31:38.111Z,12.83
2023-03-12T09:34:05.752Z,12.27
2023-03-12T09:36:33.611Z,13.27
2023-03-12T09:39:00.808Z,13.53
2023-03-12T09:41:32.338Z,13.60
2023-03-12T09:44:02.828Z,14.77
2023-03-12T09:46:39.602Z,14.73
2023-03-12T09:49:10.460Z,14.03
2023-03-12T09:51:47.008Z,15.83
2023-03-12T09:54:20.959Z,15.73
2023-03-12T09:56:48.143Z,16.60
2023-03-12T09:59:15.285Z,16.00
2023-03-12T10:01:54.534Z,13.70
2023-03-12T10:04:29.770Z,16.60
2023-03-12T10:07:13.307Z,17.50
2023-03-12T10:09:49.256Z,15.70
2023-03-12T10:12:34.296Z,15.90
2023-03-12T10:15:17.996Z,17.53
2023-03-12T10:17:53.364Z,17.30
2023-03-12T10:20:29.802Z,19.23
2023-03-12T10:23:00.819Z,18.83
2023-03-12T10:25:35.315Z,18.47
2023-03-12T10:28:12.195Z,18.50
2023-03-12T10:30:42.230Z,19.70
2023-03-12T10:33:15.398Z,18.33
2023-03-12T10:35:42.849Z,20.63
2023-03-12T10:38:12.955Z,21.57
2023-03-12T10:40:41.106Z,20.40
2023-03-12T10:43:09.764Z,20.57
2023-03-12T10:45:43.171Z,20.33
2023-03-12T10:48:11.816Z,21.67
2023-03-12T10:50:40.075Z,20.93
2023-03-12T10:53:20.260Z,21.57
2023-03-12T10:56:01.094Z,21.33
2023-03-12T10:58:33.248Z,20.93
2023-03-12T11:01:01.598Z,22.20
2023-03-12T11:03:28.935Z,22.07
2023-03-12T11:05:57.244Z,22.30
2023-03-12T11:08:29.550Z,22.67
2023-03-12T11:10:57.920Z,23.00
2023-03-12T11:13:34.619Z,23.90
2023-03-12T11:16:03.665Z,21.70
2023-03-12T11:18:31.979Z,22.33
2023-03-12T11:21:11.398Z,22.30
2023-03-12T11:23:40.777Z,24.23
2023-03-12T11:26:14.806Z,24.07
2023-03-12T11:28:43.497Z,23.50
2023-03-12T11:31:16.458Z,21.03
2023-03-12T11:33:43.697Z,22.43
2023-03-12T11:36:20.116Z,21.67
2023-03-12T11:38:55.060Z,24.30
2023-03-12T11:41:31.780Z,24.07
2023-03-12T11:44:19.093Z,25.33
2023-03-12T11:47:04.630Z,22.97
2023-03-12T11:49:52.941Z,23.87
2023-03-12T11:52:28.325Z,23.43
2023-03-12T11:55:07.278Z,23.43
2023-03-12T11:57:38.263Z,22.83
2023-03-12T12:00:18.827Z,21.60
2023-03-12T12:03:08.520Z,22.13
2023-03-12T12:05:42.489Z,22.77
2023-03-12T12:08:30.994Z,22.43
2023-03-12T12:10:58.112Z,22.40
2023-03-12T12:13:44.354Z,24.40
2023-03-12T12:16:29.153Z,22.30
2023-03-12T12:19:04.506Z,22.50
2023-03-12T12:21:52.719Z,23.47
2023-03-12T12:24:30.174Z,22.40
2023-03-12T12:27:21.015Z,23.23
2023-03-12T12:30:03.557Z,24.10
2023-03-12T12:32:49.642Z,24.97
2023-03-12T12:35:26.576Z,24.37
2023-03-12T12:38:23.560Z,22.67
2023-03-12T12:40:56.234Z,21.93
2023-03-12T12:43:23.369Z,21.87
2023-03-12T12:45:52.535Z,21.70
2023-03-12T12:48:21.929Z,21.60
2023-03-12T12:50:50.419Z,20.93
2023-03-12T12:53:23.733Z,20.77
2023-03-12T12:56:10.384Z,20.90
2023-03-12T12:58:47.381Z,21.03
2023-03-12T13:01:15.669Z,21.37
2023-03-12T13:03:43.857Z,21.07
2023-03-12T13:06:11.634Z,20.17
2023-03-12T13:08:44.473Z,20.07
2023-03-12T13:11:20.043Z,20.40
2023-03-12T13:13:50.980Z,20.70
2023-03-12T13:16:33.600Z,20.80
2023-03-12T13:19:07.531Z,20.77
2023-03-12T13:21:38.761Z,19.57
2023-03-12T13:24:18.768Z,20.63
2023-03-12T13:26:52.670Z,19.27
2023-03-12T13:29:21.218Z,21.20
2023-03-12T13:31:48.418Z,20.20
2023-03-12T13:34:18.932Z,19.80
2023-03-12T13:36:47.094Z,19.30
2023-03-12T13:39:17.158Z,20.33
2023-03-12T13:41:52.220Z,18.43
2023-03-12T13:44:31.666Z,18.90
2023-03-12T13:47:18.340Z,20.60
2023-03-12T13:49:54.472Z,19.93
2023-03-12T13:52:22.064Z,18.13
2023-03-12T13:54:51.441Z,18.63
2023-03-12T13:57:25.758Z,18.93
2023-03-12T13:59:54.145Z,18.17
2023-03-12T14:02:24.337Z,18.80
2023-03-12T14:04:51.758Z,21.37
2023-03-12T14:07:29.030Z,18.97
2023-03-12T14:10:12.294Z,18.73
2023-03-12T14:12:58.507Z,19.63
2023-03-12T14:15:30.100Z,20.30
2023-03-12T14:18:01.900Z,19.20
2023-03-12T14:20:30.415Z,18.47
2023-03-12T14:23:08.256Z,19.13
2023-03-12T14:25:40.154Z,18.90
2023-03-12T14:28:18.581Z,18.60
2023-03-12T14:31:21.494Z,16.90
2023-03-12T14:34:07.544Z,18.93
2023-03-12T14:36:43.819Z,18.10
2023-03-12T14:39:18.568Z,18.03
2023-03-12T14:41:46.626Z,17.70
2023-03-12T14:44:21.675Z,18.70
2023-03-12T14:47:02.412Z,18.37
2023-03-12T14:49:30.237Z,18.30
2023-03-12T14:51:57.641Z,17.93
2023-03-12T14:54:27.370Z,20.43
2023-03-12T14:56:54.762Z,18.93
2023-03-12T14:59:28.335Z,19.10
2023-03-12T15:02:04.721Z,18.20
2023-03-12T15:04:35.025Z,19.43
2023-03-12T15:07:05.533Z,19.27
2023-03-12T15:09:35.349Z,21.13
2023-03-12T15:12:03.788Z,19.20
2023-03-12T15:14:33.993Z,18.10
2023-03-12T15:17:01.457Z,17.20
2023-03-12T15:19:32.800Z,16.70
2023-03-12T15:22:01.652Z,16.67
2023-03-12T15:24:29.651Z,17.33
2023-03-12T15:26:56.814Z,20.23
2023-03-12T15:29:28.414Z,18.37
2023-03-12T15:31:56.995Z,19.20
2023-03-12T15:34:32.905Z,18.33
2023-03-12T15:37:01.651Z,18.73
2023-03-12T15:39:33.294Z,19.90
2023-03-12T15:42:01.864Z,18.60
2023-03-12T15:44:30.750Z,19.10
2023-03-12T15:47:10.668Z,19.93
2023-03-12T15:49:38.706Z,20.47
2023-03-12T15:52:07.654Z,22.67
2023-03-12T15:54:38.624Z,19.17
2023-03-12T15:57:14.024Z,20.50
2023-03-12T15:59:41.200Z,21.13
2023-03-12T16:02:13.188Z,19.03
2023-03-12T16:04:40.835Z,19.00
2023-03-12T16:07:12.248Z,19.17
2023-03-12T16:09:41.050Z,20.30
2023-03-12T16:12:11.163Z,20.27
2023-03-12T16:14:39.997Z,19.70
2023-03-12T16:17:11.298Z,19.40
2023-03-12T16:19:38.562Z,18.23
2023-03-12T16:22:05.909Z,20.43
2023-03-12T16:24:33.594Z,19.47
2023-03-12T16:27:00.787Z,18.00
2023-03-12T16:29:32.059Z,16.60
2023-03-12T16:31:59.447Z,19.00
2023-03-12T16:34:26.931Z,17.37
2023-03-12T16:36:54.162Z,17.77
2023-03-12T16:39:21.351Z,17.90
2023-03-12T16:41:49.553Z,17.80
2023-03-12T16:44:20.386Z,18.90
2023-03-12T16:46:47.841Z,20.83
2023-03-12T16:49:16.617Z,18.80
2023-03-12T16:51:43.883Z,18.80
2023-03-12T16:54:12.138Z,18.13
2023-03-12T16:56:42.913Z,20.43
2023-03-12T16:59:16.646Z,21.47
2023-03-12T17:01:43.977Z,20.37
2023-03-12T17:04:11.802Z,22.53
2023-03-12T17:06:40.378Z,21.37
2023-03-12T17:09:08.387Z,22.27
2023-03-12T17:11:37.622Z,21.50
2023-03-12T17:14:07.892Z,20.47
2023-03-12T17:16:35.326Z,19.07
2023-03-12T17:19:02.513Z,20.17
2023-03-12T17:21:29.841Z,19.70
2023-03-12T17:23:56.993Z,17.83
2023-03-12T17:26:24.137Z,19.13
2023-03-12T17:28:51.332Z,21.03
2023-03-12T17:31:18.619Z,19.80
2023-03-12T17:33:45.856Z,19.63
2023-03-12T17:36:14.098Z,16.87
2023-03-12T17:38:41.323Z,18.67
2023-03-12T17:41:23.442Z,19.13
2023-03-12T17:43:53.039Z,18.77
2023-03-12T17:46:20.246Z,16.73
2023-03-12T17:48:47.459Z,18.40
2023-03-12T17:51:14.594Z,17.43
2023-03-12T17:53:42.096Z,17.47
2023-03-12T17:56:12.380Z,16.17
2023-03-12T17:58:39.609Z,18.93
2023-03-12T18:01:06.793Z,13.40
2023-03-12T18:03:34.438Z,13.80
2023-03-12T18:06:01.800Z,12.30
2023-03-12T18:08:28.988Z,14.33
2023-03-12T18:10:56.496Z,11.70
2023-03-12T18:13:23.742Z,10.97
2023-03-12T18:15:52.515Z,10.30
2023-03-12T18:18:19.819Z,9.40
2023-03-12T18:20:48.519Z,9.30
2023-03-12T18:23:15.882Z,8.30
2023-03-12T18:25:43.509Z,7.80
2023-03-12T18:28:13.893Z,7.10
2023-03-12T18:30:46.687Z,9.10
2023-03-12T18:33:14.246Z,7.83
2023-03-12T18:35:41.470Z,8.00
2023-03-12T18:38:08.756Z,5.70
2023-03-12T18:40:35.950Z,5.87
2023-03-12T18:43:03.210Z,5.93
2023-03-12T18:45:31.572Z,5.47
2023-03-12T18:47:58.727Z,5.50
2023-03-12T18:50:26.154Z,4.67
2023-03-12T18:52:53.400Z,4.90
2023-03-12T18:55:21.614Z,7.30
2023-03-12T18:57:49.195Z,4.80
2023-03-12T19:00:19.861Z,4.20
2023-03-12T19:02:48.328Z,4.60
2023-03-12T19:05:16.240Z,4.50
2023-03-12T19:07:43.604Z,4.90
2023-03-12T19:10:12.255Z,6.73
2023-03-12T19:12:51.719Z,4.10
2023-03-12T19:15:20.956Z,5.27
2023-03-12T19:17:48.118Z,5.73
2023-03-12T19:20:16.631Z,5.10
2023-03-12T19:22:44.825Z,5.30
2023-03-12T19:25:11.969Z,4.90
2023-03-12T19:27:39.373Z,4.73
2023-03-12T19:30:07.112Z,5.57
2023-03-12T19:32:43.193Z,6.07
2023-03-12T19:35:12.048Z,5.10
2023-03-12T19:37:39.371Z,4.30
2023-03-12T19:40:07.195Z,5.03
2023-03-12T19:42:34.470Z,5.00
2023-03-12T19:45:01.721Z,5.30
2023-03-12T19:47:29.280Z,5.00
2023-03-12T19:49:56.506Z,4.90
2023-03-12T19:52:23.910Z,5.10
2023-03-12T19:55:03.182Z,4.67
2023-03-12T19:57:30.811Z,5.43
2023-03-12T19:59:57.995Z,4.63
2023-03-12T20:02:25.913Z,4.93
2023-03-12T20:04:53.259Z,4.50
2023-03-12T20:07:20.429Z,5.17
2023-03-12T20:09:47.630Z,4.60
2023-03-12T20:12:14.825Z,4.87
2023-03-12T20:14:42.879Z,5.30
2023-03-12T20:17:12.060Z,7.80
2023-03-12T20:19:39.323Z,5.17
2023-03-12T20:22:06.864Z,5.43
2023-03-12T20:24:36.453Z,5.83
2023-03-12T20:27:03.854Z,4.07
2023-03-12T20:29:31.071Z,4.97
2023-03-12T20:31:58.368Z,4.30
2023-03-12T20:34:25.988Z,4.60
2023-03-12T20:36:53.117Z,4.83
2023-03-12T20:39:20.259Z,4.23
2023-03-12T20:41:49.204Z,5.37
2023-03-12T20:44:16.829Z,4.73
2023-03-12T20:46:43.989Z,4.90
2023-03-12T20:49:11.117Z,5.10
2023-03-12T20:51:38.301Z,4.83
2023-03-12T20:54:05.489Z,5.87
2023-03-12T20:56:32.981Z,4.40
2023-03-12T20:59:00.163Z,6.33
2023-03-12T21:01:28.504Z,4.80
2023-03-12T21:03:59.118Z,4.80
2023-03-12T21:06:26.711Z,4.53
2023-03-12T21:08:56.266Z,6.20
2023-03-12T21:11:23.506Z,6.03
2023-03-12T21:13:50.734Z,5.87
2023-03-12T21:16:17.976Z,4.60
2023-03-12T21:18:46.328Z,5.87
2023-03-12T21:21:13.543Z,4.10
2023-03-12T21:23:40.720Z,6.83
2023-03-12T21:26:09.559Z,4.73
2023-03-12T21:28:37.132Z,4.60
2023-03-12T21:31:05.443Z,5.77
2023-03-12T21:33:33.020Z,5.60
2023-03-12T21:36:00.258Z,4.10
2023-03-12T21:38:27.413Z,4.80
2023-03-12T21:40:57.308Z,4.33
2023-03-12T21:43:24.523Z,4.23
2023-03-12T21:45:51.747Z,4.50
2023-03-12T21:48:18.957Z,6.10
2023-03-12T21:50:46.107Z,4.77
2023-03-12T21:53:23.315Z,4.63
2023-03-12T21:55:55.217Z,4.63
2023-03-12T21:58:22.382Z,4.90
2023-03-12T22:00:49.860Z,4.93
2023-03-12T22:03:17.072Z,5.40
2023-03-12T22:05:51.770Z,5.00
2023-03-12T22:08:18.938Z,5.30
2023-03-12T22:10:48.904Z,5.70
2023-03-12T22:13:16.090Z,4.03
2023-03-12T22:15:46.441Z,4.83
2023-03-12T22:18:13.648Z,5.30
2023-03-12T22:20:41.034Z,4.10
2023-03-12T22:23:08.208Z,4.40
2023-03-12T22:25:35.973Z,4.30
2023-03-12T22:28:04.140Z,4.47
2023-03-12T22:30:31.299Z,4.23
2023-03-12T22:32:59.008Z,4.50
2023-03-12T22:35:27.024Z,4.60
2023-03-12T22:37:55.887Z,5.47
2023-03-12T22:40:23.027Z,6.87
2023-03-12T22:42:56.063Z,4.73
2023-03-12T22:45:23.216Z,4.77
2023-03-12T22:47:50.592Z,6.53
2023-03-12T22:50:17.899Z,4.10
2023-03-12T22:52:45.071Z,4.73
2023-03-12T22:55:12.455Z,4.33
2023-03-12T22:57:39.783Z,5.13
2023-03-12T23:00:14.720Z,4.33
2023-03-12T23:02:42.134Z,4.00
2023-03-12T23:05:09.904Z,4.30
2023-03-12T23:07:37.106Z,5.40
2023-03-12T23:10:05.750Z,4.97
2023-03-12T23:12:32.970Z,4.40
2023-03-12T23:15:00.401Z,5.00
2023-03-12T23:17:27.523Z,4.53
2023-03-12T23:19:55.794Z,4.73
2023-03-12T23:22:23.085Z,4.30
2023-03-12T23:24:50.254Z,4.60
2023-03-12T23:27:17.479Z,4.73
2023-03-12T23:29:44.674Z,3.83
2023-03-12T23:32:11.880Z,5.00
2023-03-12T23:34:39.056Z,4.13
2023-03-12T23:37:07.084Z,4.70
2023-03-12T23:39:45.059Z,4.60
2023-03-12T23:42:19.179Z,4.50
2023-03-12T23:44:46.371Z,4.77
2023-03-12T23:47:13.545Z,4.70
2023-03-12T23:49:40.691Z,5.93
2023-03-12T23:52:07.881Z,4.70
2023-03-12T23:54:35.860Z,5.40
2023-03-12T23:57:03.334Z,4.70
2023-03-12T23:59:30.498Z,4.77
